Time;durP1;ratioP1;P1;durP2;ratioP2;P2;SDS_P1;SDS_P2;PMS_P1;PMS_P2;Temp;Humidity;BMP_temperature;BMP_pressure;BME280_temperature;BME280_humidity;BME280_pressure;Samples;Min_cycle;Max_cycle;Signal;HPM_P1;HPM_P2
2022/03/01 06:00:20;;;;;;;15.90;14.20;;;4.20;97.20;;;;;;1714371;28;20186;-80
2022/03/01 06:01:11;;;;;;;19.15;15.35;;;4.20;97.20;;;;;;1714481;28;20233;-81
2022/03/01 06:02:04;;;;;;;16.77;13.75;;;4.20;97.20;;;;;;1714638;28;20208;-81
2022/03/01 06:02:54;;;;;;;15.02;13.50;;;4.20;97.20;;;;;;1714425;28;20252;-81
2022/03/01 06:03:46;;;;;;;15.10;13.50;;;4.20;97.20;;;;;;1715811;28;20232;-81
2022/03/01 06:04:37;;;;;;;16.88;13.88;;;4.10;97.20;;;;;;1721146;28;20231;-81
2022/03/01 06:05:30;;;;;;;17.77;13.80;;;4.10;97.20;;;;;;1721129;28;20212;-81
2022/03/01 06:06:20;;;;;;;15.80;14.10;;;4.10;97.20;;;;;;1721138;28;20212;-81
2022/03/01 06:07:12;;;;;;;17.37;14.53;;;4.00;97.20;;;;;;1721132;28;20201;-81
2022/03/01 06:08:03;;;;;;;14.93;13.43;;;4.00;97.20;;;;;;1720973;28;20240;-81
2022/03/01 06:08:55;;;;;;;17.20;14.25;;;4.00;97.20;;;;;;1721075;28;20712;-81
2022/03/01 06:09:46;;;;;;;20.23;14.75;;;4.00;97.20;;;;;;1721033;28;20260;-81
2022/03/01 06:10:37;;;;;;;15.50;13.80;;;4.00;97.20;;;;;;1721062;28;20221;-81
2022/03/01 06:11:28;;;;;;;16.48;14.75;;;4.00;97.20;;;;;;1721219;28;20944;-82
2022/03/01 06:12:20;;;;;;;19.30;14.50;;;4.00;97.20;;;;;;1721172;28;20657;-82
2022/03/01 06:13:11;;;;;;;17.73;14.55;;;4.00;97.20;;;;;;1720435;28;20233;-81
2022/03/01 06:14:03;;;;;;;17.87;14.27;;;4.00;97.20;;;;;;1715053;28;20668;-81
2022/03/01 06:14:54;;;;;;;17.35;14.35;;;4.00;97.20;;;;;;1714471;28;20253;-81
2022/03/01 06:15:48;;;;;;;18.13;13.70;;;4.00;97.20;;;;;;1714502;28;20228;-82
2022/03/01 06:16:39;;;;;;;14.90;13.43;;;4.00;97.20;;;;;;1714386;28;20206;-81
2022/03/01 06:17:31;;;;;;;16.90;14.27;;;4.00;97.20;;;;;;1714350;28;20221;-81
2022/03/01 06:18:22;;;;;;;15.70;14.10;;;4.00;97.20;;;;;;1714112;28;20213;-81
2022/03/01 06:19:13;;;;;;;15.27;13.50;;;4.00;97.20;;;;;;1714497;28;20285;-81
2022/03/01 06:20:06;;;;;;;16.45;13.95;;;4.00;97.20;;;;;;1714211;28;20209;-81
2022/03/01 06:21:01;;;;;;;16.20;14.35;;;4.00;97.20;;;;;;1714363;28;20221;-81
2022/03/01 06:21:52;;;;;;;16.98;14.18;;;4.00;97.20;;;;;;1714516;28;20214;-81
2022/03/01 06:22:45;;;;;;;21.93;15.60;;;3.90;97.20;;;;;;1714630;28;20198;-81
2022/03/01 06:23:36;;;;;;;18.98;14.75;;;3.90;97.20;;;;;;1714361;28;20233;-81
2022/03/01 06:24:27;;;;;;;17.60;14.50;;;3.90;97.20;;;;;;1714401;28;20608;-81
2022/03/01 06:25:18;;;;;;;16.63;14.85;;;3.90;97.20;;;;;;1714315;28;20202;-81
2022/03/01 06:26:10;;;;;;;16.50;14.63;;;3.90;97.20;;;;;;1713614;28;20198;-81
2022/03/01 06:27:01;;;;;;;17.13;14.63;;;3.90;97.20;;;;;;1714066;28;20476;-82
2022/03/01 06:27:53;;;;;;;16.73;14.82;;;3.90;97.20;;;;;;1714121;28;20205;-82
2022/03/01 06:28:44;;;;;;;15.82;13.95;;;3.90;97.20;;;;;;1713975;28;20210;-82
2022/03/01 06:29:38;;;;;;;15.90;13.70;;;4.00;97.20;;;;;;1714242;28;20214;-82
2022/03/01 06:30:29;;;;;;;17.13;14.63;;;4.00;97.20;;;;;;1714271;28;20210;-82
2022/03/01 06:31:22;;;;;;;17.37;14.37;;;3.90;97.20;;;;;;1714394;28;20679;-82
2022/03/01 06:32:13;;;;;;;15.65;14.05;;;3.90;97.20;;;;;;1713946;28;20240;-82
2022/03/01 06:33:05;;;;;;;18.20;13.60;;;3.90;97.20;;;;;;1713373;28;20222;-82
2022/03/01 06:33:56;;;;;;;17.25;14.88;;;3.90;97.20;;;;;;1713788;28;20213;-82
2022/03/01 06:34:48;;;;;;;17.13;14.65;;;4.00;97.20;;;;;;1714303;28;20240;-82
2022/03/01 06:35:38;;;;;;;18.20;14.15;;;4.00;97.20;;;;;;1714158;28;20699;-81
2022/03/01 06:36:30;;;;;;;18.10;14.93;;;4.00;97.20;;;;;;1713648;28;20669;-82
2022/03/01 06:37:22;;;;;;;19.10;14.40;;;4.00;97.20;;;;;;1713389;28;20233;-82
2022/03/01 06:38:14;;;;;;;18.90;14.88;;;4.00;97.20;;;;;;1712878;28;20809;-82
2022/03/01 06:39:05;;;;;;;16.48;14.68;;;4.00;97.20;;;;;;1714130;28;20209;-81
2022/03/01 06:39:57;;;;;;;19.13;15.67;;;4.00;97.20;;;;;;1714217;28;20665;-81
2022/03/01 06:40:48;;;;;;;20.17;15.70;;;4.00;97.20;;;;;;1714200;28;20261;-82
2022/03/01 06:41:39;;;;;;;16.98;14.38;;;4.10;97.20;;;;;;1714272;28;20264;-81
2022/03/01 06:42:30;;;;;;;16.70;15.00;;;4.10;97.20;;;;;;1714226;28;20213;-82
2022/03/01 06:43:22;;;;;;;17.20;14.27;;;4.00;97.20;;;;;;1714266;28;20206;-83
2022/03/01 06:44:13;;;;;;;17.05;14.75;;;4.00;97.20;;;;;;1714165;28;20256;-84
2022/03/01 06:45:06;;;;;;;19.87;15.53;;;4.00;97.20;;;;;;1714242;28;20202;-85
2022/03/01 06:45:57;;;;;;;15.85;14.23;;;4.00;97.20;;;;;;1714195;28;20208;-82
2022/03/01 06:46:50;;;;;;;18.97;15.93;;;4.00;97.20;;;;;;1714231;28;20202;-83
2022/03/01 06:47:41;;;;;;;16.13;14.43;;;4.00;97.20;;;;;;1714189;28;20468;-82
2022/03/01 06:48:33;;;;;;;17.98;14.98;;;3.90;97.20;;;;;;1713980;28;20206;-83
2022/03/01 06:49:24;;;;;;;16.83;15.02;;;3.90;97.20;;;;;;1714143;28;20217;-83
2022/03/01 06:50:16;;;;;;;17.40;14.50;;;4.00;97.20;;;;;;1714033;28;20217;-83
2022/03/01 06:51:07;;;;;;;15.93;14.25;;;4.00;97.20;;;;;;1714414;28;20210;-84
2022/03/01 06:51:59;;;;;;;15.60;14.00;;;4.00;97.20;;;;;;1714380;28;20257;-83
2022/03/01 06:52:50;;;;;;;15.60;14.00;;;4.00;97.20;;;;;;1714184;28;20205;-85
2022/03/01 06:53:42;;;;;;;17.00;14.30;;;4.00;97.20;;;;;;1714318;28;20750;-83
2022/03/01 06:54:32;;;;;;;18.10;15.25;;;4.00;97.20;;;;;;1714115;28;20491;-83
2022/03/01 06:55:24;;;;;;;17.40;14.30;;;4.10;97.20;;;;;;1714151;28;20205;-82
2022/03/01 06:56:15;;;;;;;15.60;13.95;;;4.10;97.20;;;;;;1714055;28;20209;-83
2022/03/01 06:57:07;;;;;;;17.20;14.63;;;4.10;97.20;;;;;;1713779;28;20198;-83
2022/03/01 06:57:58;;;;;;;16.38;14.30;;;4.10;97.20;;;;;;1714437;28;20206;-83
2022/03/01 06:58:50;;;;;;;16.95;14.32;;;4.20;97.20;;;;;;1713834;28;20202;-82
2022/03/01 06:59:40;;;;;;;18.83;15.30;;;4.20;97.20;;;;;;1714158;28;20206;-81
2022/03/01 07:00:32;;;;;;;15.10;13.50;;;4.30;97.20;;;;;;1713723;28;20240;-81
2022/03/01 07:01:23;;;;;;;16.83;14.60;;;4.30;97.20;;;;;;1714081;28;20213;-81
2022/03/01 07:02:16;;;;;;;20.70;15.10;;;4.30;97.20;;;;;;1714107;28;20212;-81
2022/03/01 07:03:07;;;;;;;18.55;14.90;;;4.30;97.20;;;;;;1714082;28;20650;-82
2022/03/01 07:03:59;;;;;;;17.92;15.80;;;4.30;97.20;;;;;;1714103;28;20197;-83
2022/03/01 07:04:49;;;;;;;17.60;14.77;;;4.30;97.20;;;;;;1714053;28;20213;-85
2022/03/01 07:05:41;;;;;;;18.67;15.07;;;4.30;97.20;;;;;;1714169;28;20208;-86
2022/03/01 07:06:32;;;;;;;16.45;14.70;;;4.30;97.20;;;;;;1714283;28;20202;-85
2022/03/01 07:07:24;;;;;;;18.92;15.27;;;4.30;97.20;;;;;;1714134;28;20240;-86
2022/03/01 07:08:15;;;;;;;17.23;15.25;;;4.30;97.20;;;;;;1713904;28;20244;-83
2022/03/01 07:09:06;;;;;;;16.80;15.00;;;4.30;97.20;;;;;;1714224;28;20205;-84
2022/03/01 07:09:57;;;;;;;17.58;15.38;;;4.30;97.20;;;;;;1714099;28;20445;-83
2022/03/01 07:10:49;;;;;;;15.80;13.93;;;4.30;97.20;;;;;;1714082;28;20217;-83
2022/03/01 07:11:40;;;;;;;16.75;14.90;;;4.30;97.20;;;;;;1713957;28;20456;-83
2022/03/01 07:12:32;;;;;;;17.07;15.43;;;4.30;97.20;;;;;;1714063;28;20665;-83
2022/03/01 07:13:22;;;;;;;17.50;14.90;;;4.30;97.20;;;;;;1714091;28;20642;-84
2022/03/01 07:14:14;;;;;;;18.90;14.63;;;4.30;97.20;;;;;;1714108;28;20576;-84
2022/03/01 07:15:06;;;;;;;19.02;15.90;;;4.30;97.20;;;;;;1714121;28;20229;-85
2022/03/01 07:15:58;;;;;;;17.10;14.88;;;4.30;97.20;;;;;;1713978;28;20197;-84
2022/03/01 07:16:49;;;;;;;15.15;13.55;;;4.30;97.20;;;;;;1713985;28;20213;-82
2022/03/01 07:17:42;;;;;;;16.87;14.77;;;4.30;97.20;;;;;;1714266;28;20208;-82
2022/03/01 07:18:33;;;;;;;15.95;14.32;;;4.30;97.20;;;;;;1713810;28;20205;-82
2022/03/01 07:19:24;;;;;;;15.37;13.87;;;4.40;97.20;;;;;;1714080;28;20212;-82
2022/03/01 07:20:15;;;;;;;16.88;15.18;;;4.40;97.20;;;;;;1714000;28;20210;-82
2022/03/01 07:21:07;;;;;;;16.57;14.30;;;4.40;97.20;;;;;;1714249;28;20202;-82
2022/03/01 07:21:57;;;;;;;16.77;15.07;;;4.40;97.20;;;;;;1714276;28;20205;-82
2022/03/01 07:22:49;;;;;;;17.00;14.83;;;4.40;97.20;;;;;;1714136;28;20203;-82
2022/03/01 07:23:40;;;;;;;16.90;14.52;;;4.40;97.20;;;;;;1714179;28;20198;-82
2022/03/01 07:24:32;;;;;;;15.88;13.88;;;4.40;97.20;;;;;;1713494;28;20206;-82
2022/03/01 07:25:23;;;;;;;15.90;14.20;;;4.50;97.20;;;;;;1714553;28;20229;-82
2022/03/01 07:26:15;;;;;;;16.63;14.83;;;4.50;97.20;;;;;;1715358;28;20194;-82
2022/03/01 07:27:06;;;;;;;17.08;14.85;;;4.50;97.20;;;;;;1715439;28;20836;-82
2022/03/01 07:27:58;;;;;;;18.50;14.43;;;4.60;97.20;;;;;;1715388;28;20202;-82
2022/03/01 07:28:48;;;;;;;17.60;14.75;;;4.60;97.20;;;;;;1715168;28;20456;-82
2022/03/01 07:29:40;;;;;;;16.17;14.13;;;4.70;97.20;;;;;;1715590;28;20292;-82
2022/03/01 07:30:31;;;;;;;17.10;14.10;;;4.70;97.20;;;;;;1715153;28;20259;-82
2022/03/01 07:31:22;;;;;;;15.60;13.67;;;4.70;97.20;;;;;;1715549;28;20206;-82
2022/03/01 07:32:13;;;;;;;17.27;13.85;;;4.80;97.20;;;;;;1715469;28;20448;-82
2022/03/01 07:33:06;;;;;;;15.80;14.13;;;4.80;97.20;;;;;;1715516;28;20201;-82
2022/03/01 07:33:57;;;;;;;15.10;13.50;;;4.80;97.20;;;;;;1715543;28;20717;-82
2022/03/01 07:34:49;;;;;;;15.23;13.63;;;4.90;97.20;;;;;;1715410;28;20217;-82
2022/03/01 07:35:39;;;;;;;15.00;13.38;;;4.90;97.10;;;;;;1715526;28;20221;-82
2022/03/01 07:36:31;;;;;;;15.90;13.70;;;4.90;97.10;;;;;;1715552;28;20229;-82
2022/03/01 07:37:22;;;;;;;15.05;13.30;;;4.90;97.20;;;;;;1715537;28;20205;-82
2022/03/01 07:38:14;;;;;;;14.80;13.30;;;4.90;97.20;;;;;;1715162;28;20206;-82
2022/03/01 07:39:05;;;;;;;16.35;14.63;;;5.00;97.20;;;;;;1715536;28;20206;-82
2022/03/01 07:39:56;;;;;;;15.40;13.80;;;5.00;97.20;;;;;;1715067;28;20197;-82
2022/03/01 07:40:47;;;;;;;17.63;14.98;;;5.00;97.20;;;;;;1715308;28;20254;-82
2022/03/01 07:41:39;;;;;;;17.93;13.90;;;5.00;97.20;;;;;;1715287;28;20204;-82
2022/03/01 07:42:30;;;;;;;15.00;13.40;;;5.00;97.10;;;;;;1715326;28;20922;-82
2022/03/01 07:43:21;;;;;;;14.73;12.33;;;5.00;96.70;;;;;;1715403;28;20197;-82
2022/03/01 07:44:12;;;;;;;16.20;13.30;;;5.00;96.70;;;;;;1715286;28;20233;-82
2022/03/01 07:45:04;;;;;;;13.87;12.00;;;5.00;96.70;;;;;;1715478;28;20218;-82
2022/03/01 07:45:55;;;;;;;15.23;13.60;;;5.10;96.60;;;;;;1715181;28;20740;-82
2022/03/01 07:46:47;;;;;;;14.03;11.87;;;5.10;96.70;;;;;;1715483;28;20575;-82
2022/03/01 07:47:38;;;;;;;15.68;13.15;;;5.10;96.60;;;;;;1715432;28;20665;-82
2022/03/01 07:48:31;;;;;;;14.32;12.82;;;5.10;96.40;;;;;;1715153;28;20260;-82
2022/03/01 07:49:22;;;;;;;16.35;14.55;;;5.10;96.30;;;;;;1715326;28;20209;-82
2022/03/01 07:50:15;;;;;;;14.55;12.80;;;5.10;96.20;;;;;;1715327;28;20202;-82
2022/03/01 07:51:06;;;;;;;16.42;13.60;;;5.10;95.90;;;;;;1715435;28;20202;-82
2022/03/01 07:51:57;;;;;;;15.17;13.30;;;5.10;95.90;;;;;;1714968;28;20190;-82
2022/03/01 07:52:48;;;;;;;17.45;13.82;;;5.10;96.20;;;;;;1715486;28;20484;-82
2022/03/01 07:53:40;;;;;;;16.57;13.50;;;5.10;96.40;;;;;;1715449;28;20229;-82
2022/03/01 07:54:30;;;;;;;14.35;12.85;;;5.10;96.30;;;;;;1715276;28;20240;-82
2022/03/01 07:55:23;;;;;;;16.17;14.20;;;5.10;96.20;;;;;;1715348;28;20205;-82
2022/03/01 07:56:14;;;;;;;15.57;12.82;;;5.10;96.30;;;;;;1715403;28;20248;-82
2022/03/01 07:57:05;;;;;;;14.55;12.55;;;5.10;96.50;;;;;;1715349;28;20588;-82
2022/03/01 07:57:57;;;;;;;13.63;12.23;;;5.20;96.80;;;;;;1715366;28;20312;-82
2022/03/01 07:58:48;;;;;;;14.32;12.10;;;5.20;96.70;;;;;;1715008;28;20198;-82
2022/03/01 07:59:39;;;;;;;16.47;12.60;;;5.30;96.70;;;;;;1715187;28;20202;-82
2022/03/01 08:00:30;;;;;;;15.02;13.30;;;5.30;96.50;;;;;;1715346;28;20512;-82
2022/03/01 08:01:23;;;;;;;16.35;12.77;;;5.40;96.20;;;;;;1715300;28;20206;-82
2022/03/01 08:02:13;;;;;;;14.68;13.18;;;5.40;96.10;;;;;;1715325;28;20210;-82
2022/03/01 08:03:05;;;;;;;17.57;12.93;;;5.40;96.40;;;;;;1715341;28;20202;-82
2022/03/01 08:03:57;;;;;;;14.60;13.00;;;5.40;96.60;;;;;;1715305;28;20212;-82
2022/03/01 08:04:49;;;;;;;15.55;12.73;;;5.40;96.90;;;;;;1715422;28;20225;-82
2022/03/01 08:05:41;;;;;;;16.08;13.35;;;5.50;97.00;;;;;;1715313;28;20229;-82
2022/03/01 08:06:33;;;;;;;13.60;12.05;;;5.50;97.00;;;;;;1714979;28;20567;-82
2022/03/01 08:07:24;;;;;;;17.08;12.85;;;5.60;96.60;;;;;;1715140;28;20260;-82
2022/03/01 08:08:15;;;;;;;14.95;13.13;;;5.60;96.30;;;;;;1714911;28;20209;-82
2022/03/01 08:09:06;;;;;;;15.25;13.65;;;5.60;96.10;;;;;;1715147;28;20205;-82
2022/03/01 08:09:58;;;;;;;15.73;13.20;;;5.70;95.90;;;;;;1715241;28;20297;-82
2022/03/01 08:10:49;;;;;;;15.80;12.60;;;5.70;95.90;;;;;;1715140;28;20229;-82
2022/03/01 08:11:41;;;;;;;15.38;13.77;;;5.70;95.90;;;;;;1715229;28;20281;-82
2022/03/01 08:12:32;;;;;;;15.40;13.35;;;5.80;95.90;;;;;;1715103;28;20677;-82
2022/03/01 08:13:24;;;;;;;16.97;13.17;;;5.80;95.90;;;;;;1715283;28;20572;-82
2022/03/01 08:14:14;;;;;;;18.05;13.35;;;5.80;95.90;;;;;;1715198;28;20209;-82
2022/03/01 08:15:07;;;;;;;13.53;12.13;;;5.80;95.90;;;;;;1715217;28;20202;-82
2022/03/01 08:15:58;;;;;;;16.15;13.13;;;5.80;95.80;;;;;;1715363;28;20293;-82
2022/03/01 08:16:50;;;;;;;16.07;12.93;;;5.80;95.80;;;;;;1715160;28;20260;-82
2022/03/01 08:17:49;;;;;;;14.27;12.50;;;5.80;95.70;;;;;;1715294;28;20460;-82
2022/03/01 08:18:41;;;;;;;16.33;13.40;;;5.80;95.50;;;;;;1714532;28;20202;-82
2022/03/01 08:19:33;;;;;;;15.15;13.55;;;5.80;95.40;;;;;;1715005;28;20209;-82
2022/03/01 08:20:26;;;;;;;13.98;12.10;;;5.90;95.40;;;;;;1715192;28;20216;-82
2022/03/01 08:21:16;;;;;;;14.55;12.88;;;5.90;95.10;;;;;;1714521;28;20230;-82
2022/03/01 08:22:08;;;;;;;13.87;12.30;;;5.80;95.00;;;;;;1715211;28;20213;-82
2022/03/01 08:23:02;;;;;;;15.38;12.50;;;5.80;95.10;;;;;;1715368;28;20210;-82
2022/03/01 08:23:52;;;;;;;15.23;12.88;;;5.80;95.40;;;;;;1715055;28;20225;-82
2022/03/01 08:24:44;;;;;;;15.80;13.53;;;5.80;95.30;;;;;;1715161;28;20202;-82
2022/03/01 08:25:35;;;;;;;14.02;12.52;;;5.80;95.40;;;;;;1715113;28;20473;-82
2022/03/01 08:26:27;;;;;;;15.10;13.40;;;5.80;95.50;;;;;;1715114;28;20755;-82
2022/03/01 08:27:18;;;;;;;15.48;13.00;;;5.80;95.50;;;;;;1715130;28;20209;-82
2022/03/01 08:28:10;;;;;;;14.63;12.47;;;5.80;95.50;;;;;;1714869;28;20210;-81
2022/03/01 08:29:01;;;;;;;14.60;13.02;;;5.90;95.50;;;;;;1715261;28;20202;-82
2022/03/01 08:29:53;;;;;;;14.33;12.80;;;5.90;95.40;;;;;;1715110;28;20289;-82
2022/03/01 08:30:46;;;;;;;15.55;13.60;;;6.00;95.20;;;;;;1714880;28;20257;-81
2022/03/01 08:31:39;;;;;;;16.05;14.32;;;6.00;95.20;;;;;;1715081;28;20260;-81
2022/03/01 08:32:31;;;;;;;17.85;13.25;;;6.10;95.10;;;;;;1715040;28;20214;-81
2022/03/01 08:33:24;;;;;;;14.82;13.10;;;6.10;95.10;;;;;;1715057;28;20202;-81
2022/03/01 08:34:16;;;;;;;16.25;13.55;;;6.10;95.20;;;;;;1714963;28;20591;-82
2022/03/01 08:35:09;;;;;;;15.48;12.73;;;6.10;95.20;;;;;;1715121;28;20240;-81
2022/03/01 08:36:01;;;;;;;14.77;12.70;;;6.10;95.50;;;;;;1714834;28;20202;-81
2022/03/01 08:36:52;;;;;;;14.20;12.70;;;6.10;95.70;;;;;;1713936;28;20225;-81
2022/03/01 08:37:44;;;;;;;15.65;12.43;;;6.10;96.00;;;;;;1714967;28;20206;-81
2022/03/01 08:38:36;;;;;;;14.77;13.23;;;6.20;96.20;;;;;;1714738;28;20213;-81
2022/03/01 08:39:27;;;;;;;16.25;12.07;;;6.30;96.20;;;;;;1714977;28;20620;-81
2022/03/01 08:40:19;;;;;;;13.48;12.07;;;6.40;95.60;;;;;;1715074;28;20216;-81
2022/03/01 08:41:10;;;;;;;14.68;12.43;;;6.50;95.20;;;;;;1714877;28;20205;-81
2022/03/01 08:42:01;;;;;;;13.73;11.85;;;6.50;95.20;;;;;;1712964;28;20201;-81
2022/03/01 08:42:53;;;;;;;14.27;11.87;;;6.60;95.00;;;;;;1714929;28;20198;-82
2022/03/01 08:43:44;;;;;;;13.13;11.60;;;6.70;95.00;;;;;;1714942;28;20822;-81
2022/03/01 08:44:35;;;;;;;13.83;11.63;;;6.70;94.80;;;;;;1714550;28;20201;-82
2022/03/01 08:45:27;;;;;;;13.60;11.98;;;6.80;94.60;;;;;;1714595;28;20202;-81
2022/03/01 08:46:19;;;;;;;16.73;12.18;;;6.90;94.70;;;;;;1714843;28;20268;-82
2022/03/01 08:47:09;;;;;;;13.50;12.07;;;6.90;94.50;;;;;;1714945;28;20221;-81
2022/03/01 08:48:03;;;;;;;14.87;12.30;;;7.00;94.50;;;;;;1714633;28;20197;-85
2022/03/01 08:48:55;;;;;;;14.98;12.20;;;7.00;94.10;;;;;;1714839;28;20214;-83
2022/03/01 08:49:46;;;;;;;16.55;13.35;;;7.10;93.30;;;;;;1714831;28;20582;-83
2022/03/01 08:50:39;;;;;;;14.52;12.35;;;7.20;93.10;;;;;;1714713;28;20257;-82
2022/03/01 08:51:30;;;;;;;16.27;13.05;;;7.20;93.10;;;;;;1714497;28;20206;-83
2022/03/01 08:52:21;;;;;;;15.70;13.27;;;7.20;93.20;;;;;;1714240;28;20249;-82
2022/03/01 08:53:14;;;;;;;14.33;11.60;;;7.30;93.10;;;;;;1708242;29;20225;-82
2022/03/01 08:54:05;;;;;;;12.75;11.32;;;7.30;92.40;;;;;;1708185;28;20486;-82
2022/03/01 08:54:57;;;;;;;14.30;11.13;;;7.30;92.00;;;;;;1707371;28;20778;-82
2022/03/01 08:55:48;;;;;;;14.15;12.15;;;7.30;92.20;;;;;;1714457;28;20668;-82
2022/03/01 08:56:40;;;;;;;13.32;12.05;;;7.30;91.70;;;;;;1714915;28;20584;-81
2022/03/01 08:57:30;;;;;;;14.00;12.52;;;7.30;91.70;;;;;;1714559;28;20988;-83
2022/03/01 08:58:22;;;;;;;13.57;11.80;;;7.40;91.70;;;;;;1714408;28;20569;-81
2022/03/01 08:59:13;;;;;;;12.55;11.35;;;7.40;91.50;;;;;;1714968;28;20875;-81
2022/03/01 09:00:07;;;;;;;13.30;11.37;;;7.50;91.60;;;;;;1714692;28;20202;-81
2022/03/01 09:00:58;;;;;;;14.50;12.10;;;7.50;91.60;;;;;;1714774;28;20225;-81
2022/03/01 09:01:50;;;;;;;13.60;12.20;;;7.60;91.50;;;;;;1714961;28;20209;-81
2022/03/01 09:02:41;;;;;;;15.32;12.25;;;7.70;91.50;;;;;;1714799;28;20971;-81
2022/03/01 09:03:33;;;;;;;13.33;11.90;;;7.70;91.80;;;;;;1715148;28;20696;-81
2022/03/01 09:04:23;;;;;;;13.60;11.02;;;7.90;91.50;;;;;;1714942;28;20472;-81
2022/03/01 09:05:15;;;;;;;13.80;12.50;;;8.00;91.30;;;;;;1714763;28;20233;-82
2022/03/01 09:06:08;;;;;;;14.25;11.45;;;8.10;91.20;;;;;;1714846;28;20225;-81
2022/03/01 09:07:00;;;;;;;13.88;11.52;;;8.20;91.00;;;;;;1714224;28;20201;-81
2022/03/01 09:07:50;;;;;;;13.40;11.07;;;8.40;90.90;;;;;;1714934;28;20224;-82
2022/03/01 09:08:42;;;;;;;12.70;11.30;;;8.50;90.70;;;;;;1714639;28;20194;-82
2022/03/01 09:09:33;;;;;;;14.95;11.52;;;8.60;90.50;;;;;;1714930;28;20244;-81
2022/03/01 09:10:25;;;;;;;13.50;12.10;;;8.80;90.20;;;;;;1714518;28;20214;-81
2022/03/01 09:11:15;;;;;;;12.55;10.77;;;8.90;90.20;;;;;;1714330;28;20236;-84
2022/03/01 09:12:07;;;;;;;12.80;11.30;;;9.00;89.90;;;;;;1714903;28;20212;-83
2022/03/01 09:12:58;;;;;;;13.75;10.48;;;9.20;89.40;;;;;;1714647;28;20198;-84
2022/03/01 09:13:50;;;;;;;13.07;11.63;;;9.30;89.20;;;;;;1714640;28;20284;-84
2022/03/01 09:14:41;;;;;;;13.30;10.63;;;9.50;90.00;;;;;;1714802;28;20217;-83
2022/03/01 09:15:33;;;;;;;13.50;12.10;;;9.60;89.60;;;;;;1714782;28;20209;-85
2022/03/01 09:16:24;;;;;;;12.60;11.13;;;9.80;88.90;;;;;;1714805;28;20263;-85
2022/03/01 09:17:16;;;;;;;15.50;10.57;;;9.90;88.10;;;;;;1715030;28;20256;-86
2022/03/01 09:18:07;;;;;;;12.30;10.98;;;10.10;88.10;;;;;;1716660;28;20206;-84
2022/03/01 09:18:59;;;;;;;13.67;11.90;;;10.20;87.70;;;;;;1715766;28;20293;-84
2022/03/01 09:19:49;;;;;;;12.48;11.23;;;10.30;87.40;;;;;;1714765;28;20590;-84
2022/03/01 09:20:41;;;;;;;13.33;11.37;;;10.50;86.90;;;;;;1714793;28;20218;-85
2022/03/01 09:21:33;;;;;;;12.65;11.35;;;10.60;86.20;;;;;;1714816;28;20500;-84
2022/03/01 09:22:25;;;;;;;12.27;10.98;;;10.70;85.70;;;;;;1715036;28;20214;-86
2022/03/01 09:23:16;;;;;;;13.07;11.40;;;10.80;85.50;;;;;;1715026;28;20206;-84
2022/03/01 09:24:08;;;;;;;13.63;12.23;;;11.00;85.40;;;;;;1714987;28;20293;-84
2022/03/01 09:24:58;;;;;;;11.75;10.38;;;11.10;85.40;;;;;;1715152;28;20610;-84
2022/03/01 09:25:50;;;;;;;11.87;10.30;;;11.30;85.40;;;;;;1714855;28;20224;-84
2022/03/01 09:26:41;;;;;;;12.65;11.45;;;11.40;84.80;;;;;;1715131;28;20975;-85
2022/03/01 09:27:33;;;;;;;13.17;11.77;;;11.60;84.70;;;;;;1715378;28;20557;-84
2022/03/01 09:28:25;;;;;;;14.50;11.85;;;11.70;84.40;;;;;;1714390;28;20229;-84
2022/03/01 09:29:16;;;;;;;11.85;10.65;;;11.90;84.10;;;;;;1714540;28;20234;-83
2022/03/01 09:30:09;;;;;;;13.30;11.90;;;12.00;83.90;;;;;;1714684;28;20206;-86
2022/03/01 09:31:00;;;;;;;11.48;10.30;;;12.10;83.40;;;;;;1714286;28;20526;-85
2022/03/01 09:31:51;;;;;;;16.33;11.00;;;12.20;82.80;;;;;;1713178;28;20237;-83
2022/03/01 09:32:43;;;;;;;12.10;10.90;;;12.40;82.60;;;;;;1714944;28;20201;-83
2022/03/01 09:33:34;;;;;;;12.20;11.00;;;12.60;82.60;;;;;;1714480;28;20194;-85
2022/03/01 09:34:26;;;;;;;11.17;10.07;;;12.70;81.80;;;;;;1714688;28;20224;-84
2022/03/01 09:35:17;;;;;;;11.70;10.50;;;12.80;81.20;;;;;;1714054;28;20744;-84
2022/03/01 09:36:10;;;;;;;12.53;10.90;;;13.00;81.10;;;;;;1714550;28;20896;-80
2022/03/01 09:37:03;;;;;;;13.30;11.45;;;13.10;81.00;;;;;;1714688;28;20507;-81
2022/03/01 09:37:54;;;;;;;12.32;10.68;;;13.30;80.90;;;;;;1714593;28;20256;-81
2022/03/01 09:38:45;;;;;;;11.68;10.50;;;13.50;80.60;;;;;;1714524;28;20205;-82
2022/03/01 09:39:37;;;;;;;12.60;10.88;;;13.60;79.70;;;;;;1714653;28;20276;-82
2022/03/01 09:40:28;;;;;;;12.48;11.27;;;13.80;78.90;;;;;;1714686;28;20210;-81
2022/03/01 09:41:20;;;;;;;11.87;10.70;;;13.90;78.20;;;;;;1714198;28;20205;-82
2022/03/01 09:42:11;;;;;;;11.85;10.57;;;14.00;77.70;;;;;;1714832;28;20220;-82
2022/03/01 09:43:03;;;;;;;16.53;11.50;;;14.20;77.70;;;;;;1714459;28;20740;-81
2022/03/01 09:43:54;;;;;;;12.40;11.20;;;14.30;77.90;;;;;;1714633;28;20449;-83
2022/03/01 09:44:46;;;;;;;13.60;11.20;;;14.40;77.90;;;;;;1714732;28;20198;-82
2022/03/01 09:45:37;;;;;;;13.20;11.75;;;14.50;77.20;;;;;;1714600;28;20221;-84
2022/03/01 09:46:29;;;;;;;11.93;10.83;;;14.70;76.80;;;;;;1714660;28;20198;-81
2022/03/01 09:47:19;;;;;;;11.68;10.57;;;14.90;76.60;;;;;;1714472;28;20519;-83
2022/03/01 09:48:11;;;;;;;11.03;9.83;;;15.00;76.20;;;;;;1713729;28;20264;-82
2022/03/01 09:49:04;;;;;;;12.55;11.35;;;15.10;76.10;;;;;;1714624;28;20212;-83
2022/03/01 09:49:56;;;;;;;12.10;10.88;;;15.20;77.90;;;;;;1714972;28;20738;-81
2022/03/01 09:50:49;;;;;;;12.40;11.20;;;15.40;78.70;;;;;;1714417;28;20257;-81
2022/03/01 09:51:40;;;;;;;13.45;10.80;;;15.60;78.70;;;;;;1714144;28;20201;-82
2022/03/01 09:52:34;;;;;;;12.70;11.25;;;15.70;77.10;;;;;;1713831;28;20633;-81
2022/03/01 09:53:26;;;;;;;11.88;10.77;;;15.80;75.90;;;;;;1714558;28;20292;-82
2022/03/01 09:54:17;;;;;;;12.20;10.93;;;15.90;75.60;;;;;;1712041;28;20206;-80
2022/03/01 09:55:10;;;;;;;12.00;10.90;;;16.00;75.70;;;;;;1714419;28;20206;-80
2022/03/01 09:56:02;;;;;;;10.80;9.70;;;16.20;75.60;;;;;;1714501;28;20229;-82
2022/03/01 09:56:54;;;;;;;11.68;10.45;;;16.30;75.50;;;;;;1714396;28;20312;-82
2022/03/01 09:57:45;;;;;;;11.60;10.52;;;16.50;75.00;;;;;;1714053;28;20206;-82
2022/03/01 09:58:38;;;;;;;12.37;11.17;;;16.60;74.80;;;;;;1714120;28;20201;-82
2022/03/01 09:59:29;;;;;;;12.00;10.90;;;16.70;73.60;;;;;;1714380;28;20453;-82
2022/03/01 10:00:21;;;;;;;12.40;11.20;;;16.80;72.70;;;;;;1714028;28;20198;-82
2022/03/01 10:01:12;;;;;;;12.45;11.15;;;16.90;72.70;;;;;;1714457;28;20213;-82
2022/03/01 10:02:04;;;;;;;12.10;10.90;;;17.00;72.50;;;;;;1714493;28;20206;-82
2022/03/01 10:02:56;;;;;;;12.68;10.43;;;17.00;71.90;;;;;;1714686;28;20473;-82
2022/03/01 10:03:49;;;;;;;11.98;10.77;;;17.10;71.60;;;;;;1714629;28;20206;-82
2022/03/01 10:04:50;;;;;;;13.00;11.05;;;17.10;72.10;;;;;;1708667;28;20201;-82
2022/03/01 10:05:43;;;;;;;12.23;11.10;;;17.20;72.70;;;;;;1710031;28;20285;-82
2022/03/01 10:06:42;;;;;;;11.63;10.52;;;17.30;72.70;;;;;;1713659;28;20599;-82
2022/03/01 10:07:36;;;;;;;12.25;11.05;;;17.40;72.60;;;;;;1707642;29;20234;-82
2022/03/01 10:08:31;;;;;;;13.63;11.18;;;17.40;71.70;;;;;;1714124;28;20673;-82
2022/03/01 10:09:26;;;;;;;13.15;11.95;;;17.50;71.40;;;;;;1713871;28;20209;-82
2022/03/01 10:10:19;;;;;;;12.73;11.57;;;17.60;70.80;;;;;;1711502;28;20201;-81
2022/03/01 10:11:16;;;;;;;12.55;10.45;;;17.70;70.80;;;;;;1713684;28;20200;-82
2022/03/01 10:12:09;;;;;;;12.65;11.45;;;17.70;70.50;;;;;;1714184;28;20205;-82
2022/03/01 10:13:01;;;;;;;11.80;10.65;;;17.70;69.90;;;;;;1714126;28;20205;-82
2022/03/01 10:13:58;;;;;;;12.25;11.05;;;17.70;70.00;;;;;;1714336;28;20228;-82
2022/03/01 10:14:59;;;;;;;12.50;11.30;;;17.80;70.30;;;;;;1714182;28;20670;-82
2022/03/01 10:16:02;;;;;;;10.90;9.90;;;17.80;70.20;;;;;;1714433;28;20210;-82
2022/03/01 10:16:56;;;;;;;12.60;11.40;;;17.80;69.90;;;;;;1713834;28;20240;-81
2022/03/01 10:17:50;;;;;;;14.88;11.43;;;17.70;69.70;;;;;;1713571;28;20210;-81
2022/03/01 10:18:55;;;;;;;12.15;10.95;;;17.70;70.20;;;;;;1713743;28;20244;-82
2022/03/01 10:19:46;;;;;;;11.15;10.15;;;17.80;70.20;;;;;;1713651;28;20309;-81
2022/03/01 10:20:39;;;;;;;12.27;10.90;;;17.80;69.80;;;;;;1713734;28;20228;-82
2022/03/01 10:21:32;;;;;;;11.98;10.77;;;17.90;70.10;;;;;;1714119;28;20208;-81
2022/03/01 10:22:26;;;;;;;12.68;11.38;;;17.90;69.50;;;;;;1713010;28;20240;-82
2022/03/01 10:23:25;;;;;;;13.18;11.98;;;18.00;68.80;;;;;;1710668;28;20240;-82
2022/03/01 10:24:20;;;;;;;12.40;11.15;;;18.00;68.80;;;;;;1714028;28;20292;-83
2022/03/01 10:25:16;;;;;;;12.90;11.60;;;18.00;69.10;;;;;;1713876;28;20210;-85